sensor_id;sensor_type;location;lat;lon;timestamp;P1;durP1;ratioP1;P2;durP2;ratioP2
28605;SDS011;46498;49.968;7.754;2023-07-28T00:03:59;2.03;;;0.80;;
28605;SDS011;46498;49.968;7.754;2023-07-28T00:09:01;1.25;;;0.50;;
28605;SDS011;46498;49.968;7.754;2023-07-28T00:14:02;2.00;;;0.68;;
28605;SDS011;46498;49.968;7.754;2023-07-28T00:19:03;1.20;;;0.62;;
28605;SDS011;46498;49.968;7.754;2023-07-28T00:24:04;2.72;;;0.55;;
28605;SDS011;46498;49.968;7.754;2023-07-28T00:29:05;2.25;;;0.82;;
28605;SDS011;46498;49.968;7.754;2023-07-28T00:34:07;1.48;;;0.62;;
28605;SDS011;46498;49.968;7.754;2023-07-28T00:39:08;2.05;;;0.70;;
28605;SDS011;46498;49.968;7.754;2023-07-28T00:44:08;2.20;;;0.80;;
28605;SDS011;46498;49.968;7.754;2023-07-28T00:49:09;1.58;;;0.70;;
28605;SDS011;46498;49.968;7.754;2023-07-28T00:54:10;0.65;;;0.40;;
28605;SDS011;46498;49.968;7.754;2023-07-28T00:59:12;3.13;;;0.60;;
28605;SDS011;46498;49.968;7.754;2023-07-28T01:04:13;2.55;;;0.50;;
28605;SDS011;46498;49.968;7.754;2023-07-28T01:09:15;1.37;;;0.45;;
28605;SDS011;46498;49.968;7.754;2023-07-28T01:14:19;2.33;;;0.22;;
28605;SDS011;46498;49.968;7.754;2023-07-28T01:19:20;1.65;;;0.40;;
28605;SDS011;46498;49.968;7.754;2023-07-28T01:32:02;0.40;;;0.28;;
28605;SDS011;46498;49.968;7.754;2023-07-28T01:37:04;0.37;;;0.20;;
28605;SDS011;46498;49.968;7.754;2023-07-28T01:42:05;0.90;;;0.30;;
28605;SDS011;46498;49.968;7.754;2023-07-28T01:47:06;2.85;;;0.13;;
28605;SDS011;46498;49.968;7.754;2023-07-28T01:52:07;0.68;;;0.28;;
28605;SDS011;46498;49.968;7.754;2023-07-28T01:57:08;1.85;;;0.52;;
28605;SDS011;46498;49.968;7.754;2023-07-28T02:02:09;0.30;;;0.20;;
28605;SDS011;46498;49.968;7.754;2023-07-28T02:07:10;0.98;;;0.50;;
28605;SDS011;46498;49.968;7.754;2023-07-28T02:12:11;0.32;;;0.20;;
28605;SDS011;46498;49.968;7.754;2023-07-28T02:17:12;0.55;;;0.22;;
28605;SDS011;46498;49.968;7.754;2023-07-28T02:22:13;0.50;;;0.22;;
28605;SDS011;46498;49.968;7.754;2023-07-28T02:27:13;1.00;;;0.20;;
28605;SDS011;46498;49.968;7.754;2023-07-28T02:32:14;0.37;;;0.10;;
28605;SDS011;46498;49.968;7.754;2023-07-28T02:37:15;0.32;;;0.20;;
28605;SDS011;46498;49.968;7.754;2023-07-28T02:42:17;0.20;;;0.13;;
28605;SDS011;46498;49.968;7.754;2023-07-28T02:47:18;1.05;;;0.10;;
28605;SDS011;46498;49.968;7.754;2023-07-28T02:52:19;0.47;;;0.20;;
28605;SDS011;46498;49.968;7.754;2023-07-28T02:57:20;0.30;;;0.20;;
28605;SDS011;46498;49.968;7.754;2023-07-28T03:02:20;0.30;;;0.10;;
28605;SDS011;46498;49.968;7.754;2023-07-28T03:07:22;7.30;;;0.30;;
28605;SDS011;46498;49.968;7.754;2023-07-28T03:12:29;0.20;;;0.15;;
28605;SDS011;46498;49.968;7.754;2023-07-28T03:17:29;0.40;;;0.20;;
28605;SDS011;46498;49.968;7.754;2023-07-28T03:22:30;1.73;;;0.20;;
28605;SDS011;46498;49.968;7.754;2023-07-28T03:27:32;0.10;;;0.10;;
28605;SDS011;46498;49.968;7.754;2023-07-28T03:32:33;0.95;;;0.20;;
28605;SDS011;46498;49.968;7.754;2023-07-28T03:37:34;0.75;;;0.20;;
28605;SDS011;46498;49.968;7.754;2023-07-28T03:42:35;0.25;;;0.10;;
28605;SDS011;46498;49.968;7.754;2023-07-28T03:47:36;1.65;;;0.20;;
28605;SDS011;46498;49.968;7.754;2023-07-28T03:52:38;2.15;;;0.28;;
28605;SDS011;46498;49.968;7.754;2023-07-28T03:57:38;0.47;;;0.30;;
28605;SDS011;46498;49.968;7.754;2023-07-28T04:02:40;0.80;;;0.50;;
28605;SDS011;46498;49.968;7.754;2023-07-28T04:07:41;2.25;;;0.40;;
28605;SDS011;46498;49.968;7.754;2023-07-28T04:12:42;1.08;;;0.68;;
28605;SDS011;46498;49.968;7.754;2023-07-28T04:17:43;1.27;;;0.60;;
28605;SDS011;46498;49.968;7.754;2023-07-28T04:22:44;1.23;;;0.50;;
28605;SDS011;46498;49.968;7.754;2023-07-28T04:27:45;0.60;;;0.45;;
28605;SDS011;46498;49.968;7.754;2023-07-28T04:32:46;1.90;;;0.60;;
28605;SDS011;46498;49.968;7.754;2023-07-28T04:37:51;2.47;;;0.73;;
28605;SDS011;46498;49.968;7.754;2023-07-28T04:43:15;3.28;;;0.57;;
28605;SDS011;46498;49.968;7.754;2023-07-28T04:48:22;1.52;;;0.88;;
28605;SDS011;46498;49.968;7.754;2023-07-28T04:53:23;1.92;;;0.32;;
28605;SDS011;46498;49.968;7.754;2023-07-28T04:58:42;1.30;;;0.57;;
28605;SDS011;46498;49.968;7.754;2023-07-28T05:03:43;0.70;;;0.30;;
28605;SDS011;46498;49.968;7.754;2023-07-28T05:08:53;0.80;;;0.28;;
28605;SDS011;46498;49.968;7.754;2023-07-28T05:14:00;0.62;;;0.22;;
28605;SDS011;46498;49.968;7.754;2023-07-28T05:19:03;2.30;;;0.50;;
28605;SDS011;46498;49.968;7.754;2023-07-28T05:24:26;3.53;;;0.28;;
28605;SDS011;46498;49.968;7.754;2023-07-28T05:29:27;0.88;;;0.30;;
28605;SDS011;46498;49.968;7.754;2023-07-28T05:34:31;0.40;;;0.25;;
28605;SDS011;46498;49.968;7.754;2023-07-28T05:39:32;0.75;;;0.30;;
28605;SDS011;46498;49.968;7.754;2023-07-28T05:44:33;2.95;;;0.32;;
28605;SDS011;46498;49.968;7.754;2023-07-28T05:49:36;1.03;;;0.30;;
28605;SDS011;46498;49.968;7.754;2023-07-28T05:54:37;0.90;;;0.40;;
28605;SDS011;46498;49.968;7.754;2023-07-28T05:59:38;0.47;;;0.37;;
28605;SDS011;46498;49.968;7.754;2023-07-28T06:04:39;3.05;;;0.40;;
28605;SDS011;46498;49.968;7.754;2023-07-28T06:09:40;1.95;;;0.75;;
28605;SDS011;46498;49.968;7.754;2023-07-28T06:14:41;2.45;;;0.68;;
28605;SDS011;46498;49.968;7.754;2023-07-28T06:19:44;0.50;;;0.40;;
28605;SDS011;46498;49.968;7.754;2023-07-28T06:24:45;0.62;;;0.40;;
28605;SDS011;46498;49.968;7.754;2023-07-28T06:29:46;0.60;;;0.37;;
28605;SDS011;46498;49.968;7.754;2023-07-28T06:34:47;0.60;;;0.47;;
28605;SDS011;46498;49.968;7.754;2023-07-28T06:39:48;0.95;;;0.75;;
28605;SDS011;46498;49.968;7.754;2023-07-28T06:44:50;0.82;;;0.50;;
28605;SDS011;46498;49.968;7.754;2023-07-28T06:49:51;1.13;;;0.67;;
28605;SDS011;46498;49.968;7.754;2023-07-28T06:54:52;0.50;;;0.50;;
28605;SDS011;46498;49.968;7.754;2023-07-28T06:59:54;0.97;;;0.43;;
28605;SDS011;46498;49.968;7.754;2023-07-28T07:04:55;2.90;;;1.10;;
28605;SDS011;46498;49.968;7.754;2023-07-28T07:09:56;1.00;;;0.60;;
28605;SDS011;46498;49.968;7.754;2023-07-28T07:14:57;4.45;;;0.60;;
28605;SDS011;46498;49.968;7.754;2023-07-28T07:19:58;1.08;;;0.60;;
28605;SDS011;46498;49.968;7.754;2023-07-28T07:24:59;0.80;;;0.52;;
28605;SDS011;46498;49.968;7.754;2023-07-28T07:30:00;0.68;;;0.50;;
28605;SDS011;46498;49.968;7.754;2023-07-28T07:35:01;0.70;;;0.50;;
28605;SDS011;46498;49.968;7.754;2023-07-28T07:40:03;1.40;;;0.68;;
28605;SDS011;46498;49.968;7.754;2023-07-28T07:45:05;0.88;;;0.60;;
28605;SDS011;46498;49.968;7.754;2023-07-28T07:50:06;1.55;;;0.60;;
28605;SDS011;46498;49.968;7.754;2023-07-28T07:55:11;1.30;;;0.70;;
28605;SDS011;46498;49.968;7.754;2023-07-28T08:00:13;1.08;;;0.80;;
28605;SDS011;46498;49.968;7.754;2023-07-28T08:05:14;2.08;;;0.80;;
28605;SDS011;46498;49.968;7.754;2023-07-28T08:10:16;1.33;;;0.85;;
28605;SDS011;46498;49.968;7.754;2023-07-28T08:15:17;1.08;;;0.80;;
28605;SDS011;46498;49.968;7.754;2023-07-28T08:20:18;1.10;;;0.85;;
28605;SDS011;46498;49.968;7.754;2023-07-28T08:25:19;5.78;;;0.80;;
28605;SDS011;46498;49.968;7.754;2023-07-28T08:30:20;4.70;;;1.05;;
28605;SDS011;46498;49.968;7.754;2023-07-28T08:35:21;1.30;;;0.70;;
28605;SDS011;46498;49.968;7.754;2023-07-28T08:40:22;1.83;;;0.95;;
28605;SDS011;46498;49.968;7.754;2023-07-28T08:45:25;2.12;;;0.70;;
28605;SDS011;46498;49.968;7.754;2023-07-28T08:50:26;1.65;;;0.75;;
28605;SDS011;46498;49.968;7.754;2023-07-28T08:55:27;0.98;;;0.60;;
28605;SDS011;46498;49.968;7.754;2023-07-28T09:00:28;0.70;;;0.62;;
28605;SDS011;46498;49.968;7.754;2023-07-28T09:05:32;0.57;;;0.47;;
28605;SDS011;46498;49.968;7.754;2023-07-28T09:10:43;1.73;;;0.52;;
28605;SDS011;46498;49.968;7.754;2023-07-28T09:15:49;0.50;;;0.47;;
28605;SDS011;46498;49.968;7.754;2023-07-28T09:20:50;1.05;;;0.30;;
28605;SDS011;46498;49.968;7.754;2023-07-28T09:25:51;1.05;;;0.43;;
28605;SDS011;46498;49.968;7.754;2023-07-28T09:31:01;1.67;;;0.45;;
28605;SDS011;46498;49.968;7.754;2023-07-28T09:36:11;0.80;;;0.30;;
28605;SDS011;46498;49.968;7.754;2023-07-28T09:41:14;0.73;;;0.30;;
28605;SDS011;46498;49.968;7.754;2023-07-28T09:46:15;0.70;;;0.30;;
28605;SDS011;46498;49.968;7.754;2023-07-28T09:51:19;1.12;;;0.30;;
28605;SDS011;46498;49.968;7.754;2023-07-28T09:56:22;2.35;;;0.40;;
28605;SDS011;46498;49.968;7.754;2023-07-28T10:01:28;0.30;;;0.30;;
28605;SDS011;46498;49.968;7.754;2023-07-28T10:06:30;0.65;;;0.52;;
28605;SDS011;46498;49.968;7.754;2023-07-28T10:11:32;1.42;;;0.52;;
28605;SDS011;46498;49.968;7.754;2023-07-28T10:16:37;0.70;;;0.62;;
28605;SDS011;46498;49.968;7.754;2023-07-28T10:21:39;0.95;;;0.60;;
28605;SDS011;46498;49.968;7.754;2023-07-28T10:26:42;0.65;;;0.60;;
28605;SDS011;46498;49.968;7.754;2023-07-28T10:31:51;1.05;;;0.77;;
28605;SDS011;46498;49.968;7.754;2023-07-28T10:36:56;3.35;;;0.70;;
28605;SDS011;46498;49.968;7.754;2023-07-28T10:42:08;1.98;;;0.70;;
28605;SDS011;46498;49.968;7.754;2023-07-28T10:47:12;2.15;;;1.00;;
28605;SDS011;46498;49.968;7.754;2023-07-28T10:52:15;1.60;;;1.30;;
28605;SDS011;46498;49.968;7.754;2023-07-28T10:57:16;3.03;;;0.80;;
28605;SDS011;46498;49.968;7.754;2023-07-28T11:02:17;1.30;;;0.95;;
28605;SDS011;46498;49.968;7.754;2023-07-28T11:07:18;1.10;;;0.85;;
28605;SDS011;46498;49.968;7.754;2023-07-28T11:12:20;1.67;;;0.90;;
28605;SDS011;46498;49.968;7.754;2023-07-28T11:17:22;1.08;;;0.95;;
28605;SDS011;46498;49.968;7.754;2023-07-28T11:22:25;5.10;;;1.20;;
28605;SDS011;46498;49.968;7.754;2023-07-28T11:27:26;1.35;;;0.95;;
28605;SDS011;46498;49.968;7.754;2023-07-28T11:32:28;1.95;;;1.10;;
28605;SDS011;46498;49.968;7.754;2023-07-28T11:37:30;2.03;;;1.13;;
28605;SDS011;46498;49.968;7.754;2023-07-28T11:42:34;2.20;;;1.23;;
28605;SDS011;46498;49.968;7.754;2023-07-28T11:47:36;2.83;;;1.02;;
28605;SDS011;46498;49.968;7.754;2023-07-28T11:52:37;4.25;;;1.12;;
28605;SDS011;46498;49.968;7.754;2023-07-28T11:57:38;3.15;;;1.35;;
28605;SDS011;46498;49.968;7.754;2023-07-28T12:02:39;1.58;;;1.17;;
28605;SDS011;46498;49.968;7.754;2023-07-28T12:07:40;0.95;;;0.82;;
28605;SDS011;46498;49.968;7.754;2023-07-28T12:12:47;1.23;;;0.80;;
28605;SDS011;46498;49.968;7.754;2023-07-28T12:18:04;1.52;;;1.00;;
28605;SDS011;46498;49.968;7.754;2023-07-28T12:23:10;1.10;;;0.80;;
28605;SDS011;46498;49.968;7.754;2023-07-28T12:28:14;1.00;;;0.80;;
28605;SDS011;46498;49.968;7.754;2023-07-28T12:33:18;1.10;;;1.00;;
28605;SDS011;46498;49.968;7.754;2023-07-28T12:38:23;1.15;;;1.00;;
28605;SDS011;46498;49.968;7.754;2023-07-28T12:43:26;3.25;;;0.98;;
28605;SDS011;46498;49.968;7.754;2023-07-28T12:48:32;1.02;;;0.90;;
28605;SDS011;46498;49.968;7.754;2023-07-28T12:53:33;2.17;;;0.80;;
28605;SDS011;46498;49.968;7.754;2023-07-28T12:58:35;1.15;;;0.90;;
28605;SDS011;46498;49.968;7.754;2023-07-28T13:03:39;2.25;;;0.88;;
28605;SDS011;46498;49.968;7.754;2023-07-28T13:08:39;3.58;;;1.05;;
28605;SDS011;46498;49.968;7.754;2023-07-28T13:13:46;2.42;;;0.80;;
28605;SDS011;46498;49.968;7.754;2023-07-28T13:18:47;2.30;;;1.00;;
28605;SDS011;46498;49.968;7.754;2023-07-28T13:23:48;3.33;;;0.80;;
28605;SDS011;46498;49.968;7.754;2023-07-28T13:28:49;1.83;;;0.82;;
28605;SDS011;46498;49.968;7.754;2023-07-28T13:33:50;1.05;;;0.60;;
28605;SDS011;46498;49.968;7.754;2023-07-28T13:38:51;3.08;;;0.70;;
28605;SDS011;46498;49.968;7.754;2023-07-28T13:43:52;1.30;;;0.65;;
28605;SDS011;46498;49.968;7.754;2023-07-28T13:48:52;0.75;;;0.70;;
28605;SDS011;46498;49.968;7.754;2023-07-28T13:53:54;3.72;;;0.62;;
28605;SDS011;46498;49.968;7.754;2023-07-28T13:58:58;0.70;;;0.62;;
28605;SDS011;46498;49.968;7.754;2023-07-28T14:03:59;4.65;;;0.68;;
28605;SDS011;46498;49.968;7.754;2023-07-28T14:09:00;4.70;;;0.70;;
28605;SDS011;46498;49.968;7.754;2023-07-28T14:14:01;1.12;;;0.50;;
28605;SDS011;46498;49.968;7.754;2023-07-28T14:19:03;4.07;;;0.50;;
28605;SDS011;46498;49.968;7.754;2023-07-28T14:24:07;1.00;;;0.50;;
28605;SDS011;46498;49.968;7.754;2023-07-28T14:29:08;1.05;;;0.55;;
28605;SDS011;46498;49.968;7.754;2023-07-28T14:34:09;1.02;;;0.43;;
28605;SDS011;46498;49.968;7.754;2023-07-28T14:39:10;0.77;;;0.60;;
28605;SDS011;46498;49.968;7.754;2023-07-28T14:44:11;5.12;;;0.70;;
28605;SDS011;46498;49.968;7.754;2023-07-28T14:49:12;1.52;;;0.70;;
28605;SDS011;46498;49.968;7.754;2023-07-28T14:54:13;0.95;;;0.60;;
28605;SDS011;46498;49.968;7.754;2023-07-28T14:59:14;0.60;;;0.57;;
28605;SDS011;46498;49.968;7.754;2023-07-28T15:04:16;0.52;;;0.50;;
28605;SDS011;46498;49.968;7.754;2023-07-28T15:09:17;0.70;;;0.60;;
28605;SDS011;46498;49.968;7.754;2023-07-28T15:14:23;2.55;;;0.80;;
28605;SDS011;46498;49.968;7.754;2023-07-28T15:19:23;3.20;;;0.77;;
28605;SDS011;46498;49.968;7.754;2023-07-28T15:24:24;2.65;;;0.90;;
28605;SDS011;46498;49.968;7.754;2023-07-28T15:29:25;0.50;;;0.50;;
28605;SDS011;46498;49.968;7.754;2023-07-28T15:34:26;1.95;;;0.50;;
28605;SDS011;46498;49.968;7.754;2023-07-28T15:39:27;1.27;;;0.70;;
28605;SDS011;46498;49.968;7.754;2023-07-28T15:44:28;0.77;;;0.70;;
28605;SDS011;46498;49.968;7.754;2023-07-28T15:49:29;1.90;;;0.80;;
28605;SDS011;46498;49.968;7.754;2023-07-28T15:54:29;2.30;;;1.73;;
28605;SDS011;46498;49.968;7.754;2023-07-28T15:59:30;3.00;;;1.17;;
28605;SDS011;46498;49.968;7.754;2023-07-28T16:04:32;1.55;;;1.30;;
28605;SDS011;46498;49.968;7.754;2023-07-28T16:09:33;2.33;;;1.23;;
28605;SDS011;46498;49.968;7.754;2023-07-28T16:14:34;1.73;;;1.15;;
28605;SDS011;46498;49.968;7.754;2023-07-28T16:19:34;1.30;;;0.93;;
28605;SDS011;46498;49.968;7.754;2023-07-28T16:24:35;1.20;;;0.90;;
28605;SDS011;46498;49.968;7.754;2023-07-28T16:29:38;1.42;;;0.90;;
28605;SDS011;46498;49.968;7.754;2023-07-28T16:34:40;1.73;;;1.00;;
28605;SDS011;46498;49.968;7.754;2023-07-28T16:39:40;1.27;;;1.00;;
28605;SDS011;46498;49.968;7.754;2023-07-28T16:44:41;4.10;;;1.00;;
28605;SDS011;46498;49.968;7.754;2023-07-28T16:49:43;2.67;;;1.35;;
28605;SDS011;46498;49.968;7.754;2023-07-28T16:54:43;2.62;;;1.30;;
28605;SDS011;46498;49.968;7.754;2023-07-28T16:59:44;2.53;;;1.05;;
28605;SDS011;46498;49.968;7.754;2023-07-28T17:04:46;1.00;;;0.80;;
28605;SDS011;46498;49.968;7.754;2023-07-28T17:09:47;1.25;;;0.95;;
28605;SDS011;46498;49.968;7.754;2023-07-28T17:14:47;1.85;;;0.80;;
28605;SDS011;46498;49.968;7.754;2023-07-28T17:19:48;1.98;;;0.73;;
28605;SDS011;46498;49.968;7.754;2023-07-28T17:24:50;2.30;;;0.70;;
28605;SDS011;46498;49.968;7.754;2023-07-28T17:34:53;0.70;;;0.60;;
28605;SDS011;46498;49.968;7.754;2023-07-28T17:39:54;1.35;;;0.80;;
28605;SDS011;46498;49.968;7.754;2023-07-28T17:44:55;3.25;;;1.02;;
28605;SDS011;46498;49.968;7.754;2023-07-28T17:49:56;1.87;;;0.70;;
28605;SDS011;46498;49.968;7.754;2023-07-28T17:54:56;1.40;;;1.00;;
28605;SDS011;46498;49.968;7.754;2023-07-28T17:59:57;0.75;;;0.73;;
28605;SDS011;46498;49.968;7.754;2023-07-28T18:04:58;1.87;;;0.95;;
28605;SDS011;46498;49.968;7.754;2023-07-28T18:09:59;2.03;;;0.80;;
28605;SDS011;46498;49.968;7.754;2023-07-28T18:15:01;1.35;;;0.70;;
28605;SDS011;46498;49.968;7.754;2023-07-28T18:20:02;1.60;;;0.80;;
28605;SDS011;46498;49.968;7.754;2023-07-28T18:25:04;0.80;;;0.75;;
28605;SDS011;46498;49.968;7.754;2023-07-28T18:30:07;0.60;;;0.50;;
28605;SDS011;46498;49.968;7.754;2023-07-28T18:35:08;1.25;;;0.80;;
28605;SDS011;46498;49.968;7.754;2023-07-28T18:40:10;1.45;;;0.82;;
28605;SDS011;46498;49.968;7.754;2023-07-28T18:45:11;2.05;;;0.70;;
28605;SDS011;46498;49.968;7.754;2023-07-28T18:50:12;4.07;;;0.93;;
28605;SDS011;46498;49.968;7.754;2023-07-28T18:55:13;0.93;;;0.65;;
28605;SDS011;46498;49.968;7.754;2023-07-28T19:00:14;1.17;;;0.62;;
28605;SDS011;46498;49.968;7.754;2023-07-28T19:05:15;2.25;;;0.60;;
28605;SDS011;46498;49.968;7.754;2023-07-28T19:10:16;1.02;;;0.55;;
28605;SDS011;46498;49.968;7.754;2023-07-28T19:15:17;0.45;;;0.40;;
28605;SDS011;46498;49.968;7.754;2023-07-28T19:20:45;0.73;;;0.60;;
28605;SDS011;46498;49.968;7.754;2023-07-28T19:25:46;0.80;;;0.60;;
28605;SDS011;46498;49.968;7.754;2023-07-28T19:30:47;0.73;;;0.50;;
28605;SDS011;46498;49.968;7.754;2023-07-28T19:35:48;1.40;;;0.60;;
28605;SDS011;46498;49.968;7.754;2023-07-28T19:40:49;1.17;;;0.60;;
28605;SDS011;46498;49.968;7.754;2023-07-28T19:45:50;3.55;;;0.50;;
28605;SDS011;46498;49.968;7.754;2023-07-28T19:50:52;1.12;;;0.60;;
28605;SDS011;46498;49.968;7.754;2023-07-28T19:55:53;0.50;;;0.40;;
28605;SDS011;46498;49.968;7.754;2023-07-28T20:00:54;0.50;;;0.50;;
28605;SDS011;46498;49.968;7.754;2023-07-28T20:05:55;1.08;;;0.60;;
28605;SDS011;46498;49.968;7.754;2023-07-28T20:10:55;0.77;;;0.50;;
28605;SDS011;46498;49.968;7.754;2023-07-28T20:15:56;1.98;;;0.50;;
28605;SDS011;46498;49.968;7.754;2023-07-28T20:20:57;1.27;;;0.60;;
28605;SDS011;46498;49.968;7.754;2023-07-28T20:25:58;1.25;;;0.50;;
28605;SDS011;46498;49.968;7.754;2023-07-28T20:30:59;1.20;;;0.60;;
28605;SDS011;46498;49.968;7.754;2023-07-28T20:36:01;1.40;;;0.80;;
28605;SDS011;46498;49.968;7.754;2023-07-28T20:41:01;2.08;;;0.60;;
28605;SDS011;46498;49.968;7.754;2023-07-28T20:46:02;2.10;;;0.70;;
28605;SDS011;46498;49.968;7.754;2023-07-28T20:51:03;0.93;;;0.65;;
28605;SDS011;46498;49.968;7.754;2023-07-28T20:56:04;1.45;;;0.82;;
28605;SDS011;46498;49.968;7.754;2023-07-28T21:01:05;1.40;;;0.90;;
28605;SDS011;46498;49.968;7.754;2023-07-28T21:06:06;3.00;;;0.85;;
28605;SDS011;46498;49.968;7.754;2023-07-28T21:11:07;9.05;;;0.75;;
28605;SDS011;46498;49.968;7.754;2023-07-28T21:16:08;2.55;;;1.05;;
28605;SDS011;46498;49.968;7.754;2023-07-28T21:21:09;1.25;;;0.90;;
28605;SDS011;46498;49.968;7.754;2023-07-28T21:26:11;2.47;;;1.00;;
28605;SDS011;46498;49.968;7.754;2023-07-28T21:36:14;3.17;;;1.25;;
28605;SDS011;46498;49.968;7.754;2023-07-28T21:41:15;2.20;;;1.37;;
28605;SDS011;46498;49.968;7.754;2023-07-28T21:46:16;1.95;;;1.27;;
28605;SDS011;46498;49.968;7.754;2023-07-28T21:51:17;1.77;;;1.30;;
28605;SDS011;46498;49.968;7.754;2023-07-28T21:56:18;2.25;;;1.20;;
28605;SDS011;46498;49.968;7.754;2023-07-28T22:01:23;7.00;;;1.50;;
28605;SDS011;46498;49.968;7.754;2023-07-28T22:06:23;3.00;;;1.45;;
28605;SDS011;46498;49.968;7.754;2023-07-28T22:11:24;5.05;;;1.45;;
28605;SDS011;46498;49.968;7.754;2023-07-28T22:16:25;2.22;;;1.40;;
28605;SDS011;46498;49.968;7.754;2023-07-28T22:21:26;4.07;;;1.33;;
28605;SDS011;46498;49.968;7.754;2023-07-28T22:26:27;5.30;;;1.50;;
28605;SDS011;46498;49.968;7.754;2023-07-28T22:31:28;2.58;;;1.10;;
28605;SDS011;46498;49.968;7.754;2023-07-28T22:36:29;1.17;;;1.05;;
28605;SDS011;46498;49.968;7.754;2023-07-28T22:41:29;1.27;;;1.02;;
28605;SDS011;46498;49.968;7.754;2023-07-28T22:46:31;2.87;;;1.00;;
28605;SDS011;46498;49.968;7.754;2023-07-28T22:51:32;2.53;;;1.30;;
28605;SDS011;46498;49.968;7.754;2023-07-28T22:56:33;2.45;;;1.20;;
28605;SDS011;46498;49.968;7.754;2023-07-28T23:01:34;2.20;;;1.20;;
28605;SDS011;46498;49.968;7.754;2023-07-28T23:06:35;1.50;;;1.10;;
28605;SDS011;46498;49.968;7.754;2023-07-28T23:11:37;2.60;;;1.10;;
28605;SDS011;46498;49.968;7.754;2023-07-28T23:16:37;3.00;;;1.20;;
28605;SDS011;46498;49.968;7.754;2023-07-28T23:21:39;1.45;;;1.23;;
28605;SDS011;46498;49.968;7.754;2023-07-28T23:26:40;3.47;;;1.45;;
28605;SDS011;46498;49.968;7.754;2023-07-28T23:31:41;1.85;;;1.15;;
28605;SDS011;46498;49.968;7.754;2023-07-28T23:36:42;2.10;;;1.10;;
28605;SDS011;46498;49.968;7.754;2023-07-28T23:41:44;5.00;;;1.30;;
28605;SDS011;46498;49.968;7.754;2023-07-28T23:46:44;2.25;;;0.90;;
28605;SDS011;46498;49.968;7.754;2023-07-28T23:51:45;3.85;;;1.30;;
28605;SDS011;46498;49.968;7.754;2023-07-28T23:56:46;2.10;;;1.25;;
